createdAt,value
2019-01-19T00:00:35.807Z,13.67
2019-01-19T00:03:28.603Z,14.07
2019-01-19T00:06:18.108Z,16.70
2019-01-19T00:08:47.450Z,17.20
2019-01-19T00:11:50.393Z,18.53
2019-01-19T00:14:21.685Z,18.17
2019-01-19T00:17:05.143Z,13.57
2019-01-19T00:19:59.426Z,14.80
2019-01-19T00:22:36.682Z,16.63
2019-01-19T00:25:24.408Z,17.33
2019-01-19T00:28:04.596Z,15.03
2019-01-19T00:30:38.899Z,15.07
2019-01-19T00:33:25.416Z,17.37
2019-01-19T00:35:57.157Z,24.70
2019-01-19T00:38:44.995Z,24.07
2019-01-19T00:41:22.149Z,14.27
2019-01-19T00:43:53.877Z,14.70
2019-01-19T00:46:31.266Z,20.23
2019-01-19T00:49:05.484Z,12.10
2019-01-19T00:51:37.136Z,19.90
2019-01-19T00:54:17.732Z,16.67
2019-01-19T00:57:14.560Z,21.73
2019-01-19T00:59:43.564Z,16.50
2019-01-19T01:02:15.269Z,34.03
2019-01-19T01:04:49.591Z,13.70
2019-01-19T01:07:27.209Z,17.83
2019-01-19T01:10:04.740Z,23.87
2019-01-19T01:12:39.281Z,16.40
2019-01-19T01:15:36.820Z,14.60
2019-01-19T01:18:08.862Z,16.27
2019-01-19T01:20:46.393Z,19.33
2019-01-19T01:23:24.040Z,13.43
2019-01-19T01:26:25.630Z,19.00
2019-01-19T01:29:06.134Z,23.20
2019-01-19T01:31:43.619Z,14.17
2019-01-19T01:34:36.354Z,11.90
2019-01-19T01:37:08.037Z,12.37
2019-01-19T01:39:45.766Z,16.90
2019-01-19T01:42:18.752Z,17.13
2019-01-19T01:45:02.336Z,15.53
2019-01-19T01:48:08.265Z,12.20
2019-01-19T01:50:57.811Z,12.90
2019-01-19T01:53:41.042Z,14.47
2019-01-19T01:56:10.777Z,16.60
2019-01-19T01:58:45.104Z,16.87
2019-01-19T02:01:31.424Z,14.30
2019-01-19T02:04:28.573Z,17.87
2019-01-19T02:07:00.243Z,12.13
2019-01-19T02:09:43.279Z,13.70
2019-01-19T02:12:23.687Z,15.27
2019-01-19T02:15:00.880Z,14.00
2019-01-19T02:17:32.841Z,16.23
2019-01-19T02:20:10.345Z,12.90
2019-01-19T02:22:58.211Z,20.03
2019-01-19T02:25:35.982Z,11.73
2019-01-19T02:28:32.720Z,14.00
2019-01-19T02:31:22.054Z,14.33
2019-01-19T02:34:14.501Z,21.10
2019-01-19T02:37:02.001Z,17.47
2019-01-19T02:39:48.295Z,11.90
2019-01-19T02:42:25.885Z,15.27
2019-01-19T02:45:03.435Z,23.47
2019-01-19T02:47:53.441Z,17.10
2019-01-19T02:50:36.925Z,16.93
2019-01-19T02:53:25.239Z,17.03
2019-01-19T02:56:02.669Z,17.57
2019-01-19T02:58:37.113Z,15.70
2019-01-19T03:01:28.233Z,14.37
2019-01-19T03:04:14.870Z,18.50
2019-01-19T03:07:08.508Z,15.60
2019-01-19T03:09:42.866Z,15.37
2019-01-19T03:12:23.520Z,15.70
2019-01-19T03:15:06.746Z,18.30
2019-01-19T03:17:55.947Z,14.23
2019-01-19T03:20:36.518Z,40.13
2019-01-19T03:23:08.201Z,15.03
2019-01-19T03:25:45.256Z,15.77
2019-01-19T03:28:31.065Z,17.90
2019-01-19T03:31:14.311Z,34.83
2019-01-19T03:33:45.912Z,15.93
2019-01-19T03:36:33.534Z,16.03
2019-01-19T03:39:11.109Z,22.60
2019-01-19T03:41:43.169Z,18.70
2019-01-19T03:44:38.554Z,14.07
2019-01-19T03:47:19.585Z,18.43
2019-01-19T03:50:09.090Z,15.27
2019-01-19T03:52:45.975Z,17.50
2019-01-19T03:55:20.133Z,17.80
2019-01-19T03:57:51.772Z,21.23
2019-01-19T04:00:47.186Z,16.00
2019-01-19T04:03:36.492Z,17.90
2019-01-19T04:06:24.666Z,20.50
2019-01-19T04:09:18.532Z,19.43
2019-01-19T04:12:13.919Z,14.80
2019-01-19T04:14:54.318Z,15.10
2019-01-19T04:17:42.278Z,27.37
2019-01-19T04:20:33.371Z,19.67
2019-01-19T04:23:02.827Z,12.80
2019-01-19T04:25:34.486Z,16.10
2019-01-19T04:28:04.416Z,14.33
2019-01-19T04:30:32.897Z,16.33
2019-01-19T04:33:01.430Z,16.33
2019-01-19T04:35:30.067Z,22.23
2019-01-19T04:37:58.600Z,14.60
2019-01-19T04:40:27.133Z,15.83
2019-01-19T04:42:55.867Z,15.97
2019-01-19T04:45:24.346Z,17.50
2019-01-19T04:47:52.977Z,25.77
2019-01-19T04:50:21.536Z,28.37
2019-01-19T04:52:50.032Z,16.97
2019-01-19T04:55:18.574Z,18.27
2019-01-19T04:57:47.388Z,14.77
2019-01-19T05:00:17.994Z,21.30
2019-01-19T05:02:46.540Z,16.33
2019-01-19T05:05:15.179Z,21.37
2019-01-19T05:07:43.787Z,18.80
2019-01-19T05:10:13.002Z,16.37
2019-01-19T05:12:41.664Z,18.57
2019-01-19T05:15:13.247Z,18.10
2019-01-19T05:17:41.905Z,19.70
2019-01-19T05:20:12.553Z,16.33
2019-01-19T05:22:41.208Z,29.07
2019-01-19T05:25:11.657Z,21.70
2019-01-19T05:27:40.349Z,17.57
2019-01-19T05:30:12.518Z,15.70
2019-01-19T05:32:41.206Z,17.30
2019-01-19T05:35:09.991Z,21.27
2019-01-19T05:37:38.591Z,18.83
2019-01-19T05:40:10.045Z,17.67
2019-01-19T05:42:38.577Z,28.43
2019-01-19T05:45:09.583Z,20.80
2019-01-19T05:47:38.099Z,24.63
2019-01-19T05:50:15.239Z,19.93
2019-01-19T05:52:43.868Z,19.60
2019-01-19T05:55:12.622Z,16.63
2019-01-19T05:57:41.133Z,18.63
2019-01-19T06:00:13.026Z,18.33
2019-01-19T06:02:41.586Z,18.07
2019-01-19T06:05:10.451Z,23.00
2019-01-19T06:07:39.094Z,17.57
2019-01-19T06:10:10.784Z,18.83
2019-01-19T06:12:39.360Z,19.50
2019-01-19T06:15:10.776Z,18.57
2019-01-19T06:17:39.338Z,17.53
2019-01-19T06:20:13.865Z,15.33
2019-01-19T06:22:42.369Z,20.20
2019-01-19T06:25:13.267Z,16.07
2019-01-19T06:27:42.042Z,22.10
2019-01-19T06:30:16.568Z,18.57
2019-01-19T06:32:45.110Z,21.93
2019-01-19T06:35:13.904Z,27.73
2019-01-19T06:37:42.500Z,21.03
2019-01-19T06:40:16.039Z,18.17
2019-01-19T06:42:44.614Z,27.53
2019-01-19T06:45:15.462Z,18.20
2019-01-19T06:47:44.049Z,36.90
2019-01-19T06:50:15.077Z,20.53
2019-01-19T06:52:43.723Z,19.23
2019-01-19T06:55:14.795Z,21.50
2019-01-19T06:57:43.419Z,26.07
2019-01-19T07:00:16.926Z,20.27
2019-01-19T07:02:45.572Z,20.37
2019-01-19T07:05:14.426Z,21.03
2019-01-19T07:07:43.265Z,20.30
2019-01-19T07:10:17.607Z,28.10
2019-01-19T07:12:46.954Z,21.70
2019-01-19T07:15:15.795Z,26.30
2019-01-19T07:17:44.383Z,20.83
2019-01-19T07:20:15.661Z,20.43
2019-01-19T07:22:44.307Z,24.87
2019-01-19T07:25:12.964Z,33.87
2019-01-19T07:27:41.445Z,23.70
2019-01-19T07:30:16.018Z,25.03
2019-01-19T07:32:45.540Z,33.87
2019-01-19T07:35:14.724Z,19.57
2019-01-19T07:37:43.340Z,24.10
2019-01-19T07:40:16.746Z,25.33
2019-01-19T07:42:45.667Z,23.73
2019-01-19T07:45:15.365Z,31.80
2019-01-19T07:47:45.123Z,31.43
2019-01-19T07:50:16.193Z,31.80
2019-01-19T07:52:45.377Z,28.30
2019-01-19T07:55:16.366Z,25.03
2019-01-19T07:57:45.022Z,33.73
2019-01-19T08:00:16.573Z,28.40
2019-01-19T08:02:45.197Z,24.90
2019-01-19T08:05:13.772Z,29.03
2019-01-19T08:07:42.240Z,24.07
2019-01-19T08:10:13.702Z,33.33
2019-01-19T08:12:42.160Z,30.63
2019-01-19T08:15:17.717Z,33.57
2019-01-19T08:17:46.458Z,32.40
2019-01-19T08:20:15.611Z,27.33
2019-01-19T08:22:44.353Z,28.00
2019-01-19T08:25:13.589Z,28.90
2019-01-19T08:27:42.254Z,28.60
2019-01-19T08:30:13.905Z,29.70
2019-01-19T08:32:42.783Z,30.20
2019-01-19T08:35:12.488Z,26.67
2019-01-19T08:37:41.144Z,31.50
2019-01-19T08:40:24.338Z,29.43
2019-01-19T08:42:54.551Z,35.77
2019-01-19T08:45:23.275Z,31.43
2019-01-19T08:47:52.030Z,30.73
2019-01-19T08:50:20.677Z,28.33
2019-01-19T08:52:49.305Z,24.07
2019-01-19T08:55:17.935Z,22.80
2019-01-19T08:57:47.038Z,26.67
2019-01-19T09:00:17.575Z,36.03
2019-01-19T09:02:46.225Z,34.43
2019-01-19T09:05:14.931Z,32.00
2019-01-19T09:07:43.587Z,29.37
2019-01-19T09:10:14.711Z,32.03
2019-01-19T09:12:43.395Z,27.30
2019-01-19T09:15:14.327Z,40.73
2019-01-19T09:17:42.968Z,27.80
2019-01-19T09:20:14.791Z,33.10
2019-01-19T09:22:43.514Z,37.13
2019-01-19T09:25:14.288Z,29.17
2019-01-19T09:27:43.118Z,32.63
2019-01-19T09:30:23.399Z,31.33
2019-01-19T09:32:52.087Z,28.40
2019-01-19T09:35:20.704Z,29.30
2019-01-19T09:37:49.254Z,34.20
2019-01-19T09:40:18.556Z,30.57
2019-01-19T09:42:47.126Z,28.03
2019-01-19T09:45:17.363Z,28.60
2019-01-19T09:47:45.877Z,32.67
2019-01-19T09:50:23.681Z,33.37
2019-01-19T09:52:52.138Z,30.53
2019-01-19T09:55:20.737Z,30.93
2019-01-19T09:57:49.384Z,30.33
2019-01-19T10:00:21.220Z,31.07
2019-01-19T10:02:49.820Z,29.87
2019-01-19T10:05:23.098Z,28.63
2019-01-19T10:07:51.747Z,35.60
2019-01-19T10:10:20.265Z,30.83
2019-01-19T10:12:48.904Z,29.73
2019-01-19T10:15:18.784Z,37.93
2019-01-19T10:17:47.444Z,32.60
2019-01-19T10:20:21.247Z,31.80
2019-01-19T10:22:49.795Z,33.03
2019-01-19T10:25:18.294Z,28.47
2019-01-19T10:27:46.991Z,30.37
2019-01-19T10:30:18.463Z,36.33
2019-01-19T10:32:47.287Z,39.80
2019-01-19T10:35:16.635Z,34.77
2019-01-19T10:37:45.302Z,33.20
2019-01-19T10:40:16.413Z,32.33
2019-01-19T10:42:45.023Z,36.80
2019-01-19T10:45:26.175Z,38.63
2019-01-19T10:47:54.827Z,38.13
2019-01-19T10:50:23.506Z,31.30
2019-01-19T10:52:52.253Z,34.40
2019-01-19T10:55:22.321Z,42.63
2019-01-19T10:57:50.966Z,37.90
2019-01-19T11:00:33.630Z,33.90
2019-01-19T11:03:02.170Z,34.63
2019-01-19T11:05:31.094Z,39.43
2019-01-19T11:08:03.973Z,30.93
2019-01-19T11:10:36.426Z,34.57
2019-01-19T11:13:05.188Z,28.60
2019-01-19T11:15:33.886Z,29.00
2019-01-19T11:18:02.496Z,33.90
2019-01-19T11:20:32.166Z,40.73
2019-01-19T11:23:01.708Z,35.97
2019-01-19T11:25:30.582Z,36.73
2019-01-19T11:27:59.150Z,31.83
2019-01-19T11:30:29.901Z,35.87
2019-01-19T11:32:58.480Z,34.67
2019-01-19T11:35:30.081Z,34.07
2019-01-19T11:37:58.651Z,33.60
2019-01-19T11:40:29.931Z,31.20
2019-01-19T11:42:58.420Z,34.83
2019-01-19T11:45:27.075Z,33.40
2019-01-19T11:47:55.986Z,30.60
2019-01-19T11:50:24.557Z,31.20
2019-01-19T11:52:53.298Z,40.47
2019-01-19T11:55:21.930Z,32.30
2019-01-19T11:57:52.768Z,36.20
2019-01-19T12:00:26.907Z,36.67
2019-01-19T12:02:55.661Z,29.63
2019-01-19T12:05:24.317Z,38.13
2019-01-19T12:07:52.926Z,31.40
2019-01-19T12:10:29.490Z,31.87
2019-01-19T12:12:58.367Z,35.37
2019-01-19T12:15:27.070Z,25.70
2019-01-19T12:17:55.899Z,30.73
2019-01-19T12:20:26.871Z,33.03
2019-01-19T12:22:55.742Z,30.37
2019-01-19T12:25:25.410Z,30.97
2019-01-19T12:27:54.060Z,30.83
2019-01-19T12:30:25.188Z,31.40
2019-01-19T12:32:53.825Z,31.77
2019-01-19T12:35:22.560Z,26.00
2019-01-19T12:37:51.156Z,34.37
2019-01-19T12:40:25.040Z,27.57
2019-01-19T12:42:59.286Z,35.20
2019-01-19T12:45:31.011Z,28.47
2019-01-19T12:47:59.624Z,32.47
2019-01-19T12:50:28.582Z,25.17
2019-01-19T12:52:57.095Z,27.47
2019-01-19T12:55:25.847Z,32.90
2019-01-19T12:57:54.563Z,32.20
2019-01-19T13:00:25.412Z,30.50
2019-01-19T13:02:54.766Z,28.97
2019-01-19T13:05:44.347Z,28.03
2019-01-19T13:08:16.491Z,26.10
2019-01-19T13:10:51.229Z,32.00
2019-01-19T13:13:19.979Z,36.17
2019-01-19T13:15:51.806Z,31.97
2019-01-19T13:18:32.569Z,31.20
2019-01-19T13:21:38.360Z,28.83
2019-01-19T13:24:31.269Z,34.30
2019-01-19T13:27:20.514Z,29.47
2019-01-19T13:30:09.968Z,29.40
2019-01-19T13:32:50.518Z,28.10
2019-01-19T13:35:41.228Z,28.70
2019-01-19T13:38:28.958Z,26.80
2019-01-19T13:41:15.384Z,27.77
2019-01-19T13:44:09.552Z,51.40
2019-01-19T13:46:47.265Z,31.43
2019-01-19T13:49:41.803Z,29.67
2019-01-19T13:52:32.998Z,36.97
2019-01-19T13:55:31.664Z,30.30
2019-01-19T13:58:03.304Z,27.87
2019-01-19T14:00:55.988Z,28.40
2019-01-19T14:03:43.870Z,29.03
2019-01-19T14:06:36.129Z,29.10
2019-01-19T14:09:22.816Z,41.60
2019-01-19T14:12:03.033Z,29.93
2019-01-19T14:14:37.377Z,33.37
2019-01-19T14:17:29.807Z,33.30
2019-01-19T14:20:01.539Z,32.30
2019-01-19T14:22:52.267Z,38.50
2019-01-19T14:25:47.544Z,30.80
2019-01-19T14:28:37.188Z,31.80
2019-01-19T14:31:11.666Z,32.33
2019-01-19T14:33:54.870Z,30.33
2019-01-19T14:36:38.344Z,31.47
2019-01-19T14:39:12.730Z,30.23
2019-01-19T14:41:47.096Z,36.97
2019-01-19T14:44:19.001Z,44.77
2019-01-19T14:47:02.921Z,30.30
2019-01-19T14:49:40.639Z,42.00
2019-01-19T14:52:36.008Z,35.50
2019-01-19T14:55:23.805Z,28.87
2019-01-19T14:57:58.453Z,34.87
2019-01-19T15:00:35.934Z,41.87
2019-01-19T15:03:16.310Z,33.33
2019-01-19T15:05:51.897Z,33.87
2019-01-19T15:08:49.031Z,31.50
2019-01-19T15:11:39.936Z,32.50
2019-01-19T15:14:31.279Z,48.37
2019-01-19T15:17:18.686Z,42.80
2019-01-19T15:20:01.643Z,35.60
2019-01-19T15:22:45.626Z,42.37
2019-01-19T15:25:35.212Z,40.93
2019-01-19T15:28:06.894Z,42.33
2019-01-19T15:30:41.518Z,40.60
2019-01-19T15:33:30.947Z,42.60
2019-01-19T15:36:05.602Z,30.93
2019-01-19T15:38:43.177Z,44.27
2019-01-19T15:41:17.696Z,42.83
2019-01-19T15:44:13.459Z,38.87
2019-01-19T15:46:50.814Z,42.10
2019-01-19T15:49:47.731Z,34.60
2019-01-19T15:52:40.650Z,32.07
2019-01-19T15:55:36.028Z,39.37
2019-01-19T15:58:19.444Z,37.67
2019-01-19T16:01:00.230Z,41.37
2019-01-19T16:03:34.835Z,41.97
2019-01-19T16:06:27.662Z,44.93
2019-01-19T16:09:18.204Z,40.03
2019-01-19T16:12:05.710Z,37.50
2019-01-19T16:14:49.499Z,39.77
2019-01-19T16:17:27.053Z,53.83
2019-01-19T16:20:16.499Z,40.37
2019-01-19T16:22:54.163Z,48.20
2019-01-19T16:25:31.679Z,42.67
2019-01-19T16:28:15.238Z,33.77
2019-01-19T16:30:47.124Z,37.87
2019-01-19T16:33:33.385Z,37.83
2019-01-19T16:36:04.995Z,40.83
2019-01-19T16:39:00.051Z,37.43
2019-01-19T16:41:48.111Z,39.20
2019-01-19T16:44:27.848Z,39.30
2019-01-19T16:47:11.011Z,39.20
2019-01-19T16:49:48.147Z,46.93
2019-01-19T16:52:34.418Z,43.17
2019-01-19T16:55:14.858Z,56.07
2019-01-19T16:57:49.613Z,45.40
2019-01-19T17:00:37.560Z,37.63
2019-01-19T17:03:26.853Z,39.77
2019-01-19T17:06:01.275Z,48.60
2019-01-19T17:08:32.987Z,40.70
2019-01-19T17:11:10.552Z,45.87
2019-01-19T17:13:54.280Z,36.50
2019-01-19T17:16:40.588Z,38.20
2019-01-19T17:19:14.878Z,41.60
2019-01-19T17:21:58.481Z,35.67
2019-01-19T17:25:01.659Z,42.13
2019-01-19T17:27:36.019Z,40.37
2019-01-19T17:30:16.500Z,42.87
2019-01-19T17:32:51.254Z,31.43
2019-01-19T17:35:31.666Z,34.70
2019-01-19T17:38:12.162Z,42.60
2019-01-19T17:40:55.431Z,39.00
2019-01-19T17:43:27.779Z,35.93
2019-01-19T17:46:05.181Z,52.33
2019-01-19T17:48:39.846Z,41.17
2019-01-19T17:51:14.557Z,43.70
2019-01-19T17:53:46.426Z,41.83
2019-01-19T17:56:26.779Z,51.40
2019-01-19T17:59:07.414Z,40.87
2019-01-19T18:01:51.015Z,41.63
2019-01-19T18:04:28.369Z,41.93
2019-01-19T18:07:21.066Z,44.47
2019-01-19T18:10:13.637Z,39.10
2019-01-19T18:13:06.207Z,41.27
2019-01-19T18:15:40.799Z,41.37
2019-01-19T18:18:18.377Z,39.93
2019-01-19T18:20:52.478Z,35.67
2019-01-19T18:23:32.807Z,42.20
2019-01-19T18:26:04.405Z,38.53
2019-01-19T18:28:55.213Z,33.93
2019-01-19T18:31:26.946Z,42.23
2019-01-19T18:33:58.614Z,45.47
2019-01-19T18:36:35.816Z,46.10
2019-01-19T18:39:10.105Z,37.80
2019-01-19T18:41:44.635Z,38.77
2019-01-19T18:44:44.494Z,40.90
2019-01-19T18:47:33.823Z,46.83
2019-01-19T18:50:08.621Z,51.17
2019-01-19T18:53:01.401Z,61.23
2019-01-19T18:55:54.179Z,45.10
2019-01-19T18:58:35.657Z,47.00
2019-01-19T19:01:25.629Z,43.97
2019-01-19T19:04:00.046Z,43.93
2019-01-19T19:06:48.391Z,41.37
2019-01-19T19:09:35.238Z,45.87
2019-01-19T19:12:16.527Z,43.20
2019-01-19T19:14:56.910Z,35.80
2019-01-19T19:17:31.377Z,54.13
2019-01-19T19:20:08.403Z,37.23
2019-01-19T19:22:40.005Z,38.83
2019-01-19T19:25:35.688Z,39.57
2019-01-19T19:28:19.338Z,36.57
2019-01-19T19:30:57.119Z,34.10
2019-01-19T19:33:37.417Z,45.10
2019-01-19T19:36:37.616Z,37.10
2019-01-19T19:39:30.315Z,45.07
2019-01-19T19:42:22.777Z,44.03
2019-01-19T19:45:19.621Z,37.73
2019-01-19T19:47:56.838Z,41.43
2019-01-19T19:50:43.306Z,32.20
2019-01-19T19:53:11.945Z,37.10
2019-01-19T19:55:39.405Z,50.60
2019-01-19T19:58:07.927Z,41.03
2019-01-19T20:00:36.482Z,37.77
2019-01-19T20:03:05.268Z,37.17
2019-01-19T20:05:33.822Z,36.87
2019-01-19T20:08:02.358Z,39.23
2019-01-19T20:10:30.868Z,38.93
2019-01-19T20:12:59.370Z,49.00
2019-01-19T20:15:27.989Z,32.00
2019-01-19T20:17:57.495Z,48.87
2019-01-19T20:20:26.049Z,37.30
2019-01-19T20:22:54.716Z,40.60
2019-01-19T20:25:23.241Z,39.73
2019-01-19T20:27:51.752Z,39.63
2019-01-19T20:30:20.381Z,38.57
2019-01-19T20:32:50.487Z,40.40
2019-01-19T20:35:19.499Z,34.50
2019-01-19T20:37:48.427Z,52.03
2019-01-19T20:40:24.097Z,39.83
2019-01-19T20:42:47.436Z,41.60
2019-01-19T20:45:16.105Z,47.20
2019-01-19T20:47:44.727Z,35.33
2019-01-19T20:50:13.533Z,39.17
2019-01-19T20:52:42.526Z,36.10
2019-01-19T20:55:12.102Z,38.20
2019-01-19T20:57:40.789Z,33.33
2019-01-19T21:00:13.384Z,35.27
2019-01-19T21:02:42.091Z,47.83
2019-01-19T21:05:10.602Z,37.23
2019-01-19T21:07:39.287Z,38.63
2019-01-19T21:10:08.295Z,34.80
2019-01-19T21:12:37.048Z,37.73
2019-01-19T21:15:08.721Z,35.97
2019-01-19T21:17:38.075Z,33.03
2019-01-19T21:20:09.105Z,38.40
2019-01-19T21:22:37.808Z,36.77
2019-01-19T21:25:08.045Z,34.30
2019-01-19T21:27:36.864Z,35.47
2019-01-19T21:30:11.171Z,38.13
2019-01-19T21:32:39.877Z,36.00
2019-01-19T21:35:09.287Z,32.47
2019-01-19T21:37:37.980Z,35.80
2019-01-19T21:40:11.933Z,39.97
2019-01-19T21:42:40.482Z,31.37
2019-01-19T21:45:20.362Z,41.37
2019-01-19T21:47:48.943Z,32.00
2019-01-19T21:50:17.600Z,29.63
2019-01-19T21:52:46.079Z,32.90
2019-01-19T21:55:14.593Z,35.40
2019-01-19T21:57:43.067Z,40.17
2019-01-19T22:00:17.049Z,33.03
2019-01-19T22:02:45.583Z,42.30
2019-01-19T22:05:14.446Z,32.80
2019-01-19T22:07:42.927Z,32.50
2019-01-19T22:10:14.358Z,41.77
2019-01-19T22:12:42.824Z,32.13
2019-01-19T22:15:16.357Z,39.17
2019-01-19T22:17:44.970Z,37.73
2019-01-19T22:20:15.504Z,32.23
2019-01-19T22:22:44.297Z,34.40
2019-01-19T22:25:12.955Z,46.33
2019-01-19T22:27:43.271Z,35.87
2019-01-19T22:30:19.844Z,35.00
2019-01-19T22:32:50.221Z,45.13
2019-01-19T22:35:18.832Z,36.37
2019-01-19T22:37:47.327Z,36.17
2019-01-19T22:40:19.096Z,38.70
2019-01-19T22:42:48.147Z,34.63
2019-01-19T22:45:17.210Z,35.37
2019-01-19T22:47:45.751Z,38.50
2019-01-19T22:50:16.179Z,43.20
2019-01-19T22:52:44.787Z,40.33
2019-01-19T22:55:13.535Z,34.07
2019-01-19T22:57:42.064Z,39.37
2019-01-19T23:00:52.225Z,30.00
2019-01-19T23:03:20.800Z,34.23
2019-01-19T23:05:49.770Z,33.50
2019-01-19T23:08:18.355Z,34.90
2019-01-19T23:10:46.902Z,36.03
2019-01-19T23:13:15.518Z,34.43
2019-01-19T23:15:44.126Z,31.83
2019-01-19T23:18:12.733Z,36.63
2019-01-19T23:20:41.219Z,36.27
2019-01-19T23:23:09.641Z,41.40
2019-01-19T23:25:38.230Z,33.23
2019-01-19T23:28:07.133Z,33.40
2019-01-19T23:30:36.033Z,40.23
2019-01-19T23:33:04.605Z,38.97
2019-01-19T23:35:33.245Z,46.90
2019-01-19T23:38:01.704Z,32.70
2019-01-19T23:40:30.305Z,39.10
2019-01-19T23:42:58.876Z,33.10
2019-01-19T23:45:27.508Z,39.60
2019-01-19T23:47:55.982Z,37.47
2019-01-19T23:50:24.616Z,45.13
2019-01-19T23:52:53.487Z,40.13
2019-01-19T23:55:22.340Z,45.37
2019-01-19T23:57:50.957Z,38.07
